sensor_id;sensor_type;location;lat;lon;timestamp;pressure;altitude;pressure_sealevel;temperature;humidity
71107;BME280;58763;47.982;11.516;2023-02-26T00:00:16;93236.28;;;-1.08;82.20
71107;BME280;58763;47.982;11.516;2023-02-26T00:02:46;93233.13;;;-1.05;82.58
71107;BME280;58763;47.982;11.516;2023-02-26T00:05:15;93228.69;;;-1.16;82.93
71107;BME280;58763;47.982;11.516;2023-02-26T00:07:41;93225.28;;;-1.28;82.73
71107;BME280;58763;47.982;11.516;2023-02-26T00:10:09;93222.63;;;-1.28;83.00
71107;BME280;58763;47.982;11.516;2023-02-26T00:12:36;93235.00;;;-1.33;83.01
71107;BME280;58763;47.982;11.516;2023-02-26T00:15:03;93242.28;;;-1.41;83.13
71107;BME280;58763;47.982;11.516;2023-02-26T00:17:47;93249.22;;;-1.51;83.61
71107;BME280;58763;47.982;11.516;2023-02-26T00:20:13;93253.25;;;-1.49;83.63
71107;BME280;58763;47.982;11.516;2023-02-26T00:22:41;93258.94;;;-1.68;84.08
71107;BME280;58763;47.982;11.516;2023-02-26T00:25:08;93252.25;;;-1.59;83.80
71107;BME280;58763;47.982;11.516;2023-02-26T00:27:34;93248.75;;;-1.48;83.60
71107;BME280;58763;47.982;11.516;2023-02-26T00:30:02;93254.59;;;-1.34;83.52
71107;BME280;58763;47.982;11.516;2023-02-26T00:32:28;93253.72;;;-1.23;83.24
71107;BME280;58763;47.982;11.516;2023-02-26T00:34:54;93261.63;;;-1.28;82.38
71107;BME280;58763;47.982;11.516;2023-02-26T00:37:32;93255.72;;;-1.30;82.65
71107;BME280;58763;47.982;11.516;2023-02-26T00:42:33;93252.00;;;-1.18;82.83
71107;BME280;58763;47.982;11.516;2023-02-26T00:45:00;93264.03;;;-0.99;82.52
71107;BME280;58763;47.982;11.516;2023-02-26T00:50:13;93256.06;;;-0.99;82.27
71107;BME280;58763;47.982;11.516;2023-02-26T00:52:52;93259.38;;;-0.92;81.24
71107;BME280;58763;47.982;11.516;2023-02-26T00:55:18;93261.47;;;-0.94;81.66
71107;BME280;58763;47.982;11.516;2023-02-26T00:57:44;93272.41;;;-1.18;81.95
71107;BME280;58763;47.982;11.516;2023-02-26T01:00:11;93271.19;;;-1.39;82.48
71107;BME280;58763;47.982;11.516;2023-02-26T01:02:38;93265.72;;;-1.21;82.22
71107;BME280;58763;47.982;11.516;2023-02-26T01:05:04;93265.97;;;-1.22;82.27
71107;BME280;58763;47.982;11.516;2023-02-26T01:07:37;93267.44;;;-1.15;81.43
71107;BME280;58763;47.982;11.516;2023-02-26T01:10:04;93267.16;;;-1.02;81.79
71107;BME280;58763;47.982;11.516;2023-02-26T01:12:30;93268.78;;;-1.01;81.33
71107;BME280;58763;47.982;11.516;2023-02-26T01:14:56;93264.13;;;-0.94;80.83
71107;BME280;58763;47.982;11.516;2023-02-26T01:17:31;93266.78;;;-0.94;80.52
71107;BME280;58763;47.982;11.516;2023-02-26T01:20:06;93262.31;;;-1.05;80.71
71107;BME280;58763;47.982;11.516;2023-02-26T01:25:21;93264.06;;;-1.10;80.88
71107;BME280;58763;47.982;11.516;2023-02-26T01:27:47;93265.72;;;-1.21;80.85
71107;BME280;58763;47.982;11.516;2023-02-26T01:30:13;93262.34;;;-1.16;80.89
71107;BME280;58763;47.982;11.516;2023-02-26T01:32:57;93262.81;;;-1.08;81.20
71107;BME280;58763;47.982;11.516;2023-02-26T01:35:45;93265.56;;;-1.03;80.82
71107;BME280;58763;47.982;11.516;2023-02-26T01:38:21;93257.72;;;-1.09;80.26
71107;BME280;58763;47.982;11.516;2023-02-26T01:41:23;93263.69;;;-1.02;80.12
71107;BME280;58763;47.982;11.516;2023-02-26T01:46:25;93269.59;;;-0.84;80.14
71107;BME280;58763;47.982;11.516;2023-02-26T01:48:55;93272.75;;;-0.87;79.95
71107;BME280;58763;47.982;11.516;2023-02-26T01:51:42;93265.16;;;-0.95;80.19
71107;BME280;58763;47.982;11.516;2023-02-26T01:54:09;93267.81;;;-0.95;79.75
71107;BME280;58763;47.982;11.516;2023-02-26T01:56:34;93272.78;;;-1.26;80.13
71107;BME280;58763;47.982;11.516;2023-02-26T01:59:02;93267.03;;;-1.35;80.98
71107;BME280;58763;47.982;11.516;2023-02-26T02:01:31;93266.06;;;-1.57;81.77
71107;BME280;58763;47.982;11.516;2023-02-26T02:03:58;93276.00;;;-1.64;81.85
71107;BME280;58763;47.982;11.516;2023-02-26T02:06:25;93276.13;;;-1.71;82.37
71107;BME280;58763;47.982;11.516;2023-02-26T02:08:52;93279.78;;;-1.72;82.40
71107;BME280;58763;47.982;11.516;2023-02-26T02:11:17;93284.84;;;-1.59;82.18
71107;BME280;58763;47.982;11.516;2023-02-26T02:16:27;93292.47;;;-1.74;82.10
71107;BME280;58763;47.982;11.516;2023-02-26T02:30:23;93294.00;;;-2.13;82.60
71107;BME280;58763;47.982;11.516;2023-02-26T02:33:02;93299.63;;;-1.97;82.50
71107;BME280;58763;47.982;11.516;2023-02-26T02:35:35;93296.06;;;-2.03;82.47
71107;BME280;58763;47.982;11.516;2023-02-26T02:38:22;93295.72;;;-1.95;82.54
71107;BME280;58763;47.982;11.516;2023-02-26T02:41:03;93292.94;;;-2.00;82.53
71107;BME280;58763;47.982;11.516;2023-02-26T02:43:32;93295.59;;;-2.00;82.34
71107;BME280;58763;47.982;11.516;2023-02-26T02:46:11;93289.41;;;-2.05;82.41
71107;BME280;58763;47.982;11.516;2023-02-26T02:49:00;93289.59;;;-1.95;82.01
71107;BME280;58763;47.982;11.516;2023-02-26T02:51:36;93298.50;;;-2.13;82.59
71107;BME280;58763;47.982;11.516;2023-02-26T02:54:14;93297.78;;;-2.20;82.03
71107;BME280;58763;47.982;11.516;2023-02-26T02:56:46;93294.09;;;-2.19;81.55
71107;BME280;58763;47.982;11.516;2023-02-26T02:59:20;93302.28;;;-2.21;81.47
71107;BME280;58763;47.982;11.516;2023-02-26T03:02:07;93298.09;;;-2.40;80.94
71107;BME280;58763;47.982;11.516;2023-02-26T03:04:36;93302.50;;;-2.34;81.65
71107;BME280;58763;47.982;11.516;2023-02-26T03:07:02;93305.25;;;-2.29;81.73
71107;BME280;58763;47.982;11.516;2023-02-26T03:09:28;93305.94;;;-2.22;81.58
71107;BME280;58763;47.982;11.516;2023-02-26T03:11:53;93306.53;;;-2.31;81.52
71107;BME280;58763;47.982;11.516;2023-02-26T03:14:19;93311.16;;;-2.27;81.90
71107;BME280;58763;47.982;11.516;2023-02-26T03:16:55;93309.41;;;-2.21;81.86
71107;BME280;58763;47.982;11.516;2023-02-26T03:19:32;93315.53;;;-2.21;81.34
71107;BME280;58763;47.982;11.516;2023-02-26T03:22:06;93321.84;;;-2.22;81.48
71107;BME280;58763;47.982;11.516;2023-02-26T03:24:37;93320.81;;;-2.32;81.07
71107;BME280;58763;47.982;11.516;2023-02-26T03:30:18;93334.34;;;-2.40;82.13
71107;BME280;58763;47.982;11.516;2023-02-26T03:35:54;93325.34;;;-2.62;82.52
71107;BME280;58763;47.982;11.516;2023-02-26T03:38:29;93329.84;;;-2.51;82.83
71107;BME280;58763;47.982;11.516;2023-02-26T03:41:11;93314.53;;;-2.49;82.96
71107;BME280;58763;47.982;11.516;2023-02-26T03:43:44;93326.75;;;-2.48;83.56
71107;BME280;58763;47.982;11.516;2023-02-26T03:46:16;93327.06;;;-2.56;84.52
71107;BME280;58763;47.982;11.516;2023-02-26T03:48:45;93333.78;;;-2.42;83.96
71107;BME280;58763;47.982;11.516;2023-02-26T03:51:13;93331.78;;;-2.58;83.04
71107;BME280;58763;47.982;11.516;2023-02-26T03:53:48;93334.09;;;-2.62;82.53
71107;BME280;58763;47.982;11.516;2023-02-26T03:56:24;93333.13;;;-2.79;82.32
71107;BME280;58763;47.982;11.516;2023-02-26T03:58:53;93339.81;;;-2.76;82.98
71107;BME280;58763;47.982;11.516;2023-02-26T04:01:22;93334.88;;;-3.03;82.83
71107;BME280;58763;47.982;11.516;2023-02-26T04:03:56;93345.25;;;-3.01;82.40
71107;BME280;58763;47.982;11.516;2023-02-26T04:06:23;93350.09;;;-3.16;82.63
71107;BME280;58763;47.982;11.516;2023-02-26T04:08:50;93351.44;;;-3.25;82.84
71107;BME280;58763;47.982;11.516;2023-02-26T04:11:18;93347.03;;;-3.31;82.95
71107;BME280;58763;47.982;11.516;2023-02-26T04:13:45;93351.00;;;-3.40;83.71
71107;BME280;58763;47.982;11.516;2023-02-26T04:16:11;93351.72;;;-3.33;83.94
71107;BME280;58763;47.982;11.516;2023-02-26T04:18:37;93351.53;;;-3.32;83.96
71107;BME280;58763;47.982;11.516;2023-02-26T04:21:03;93357.06;;;-3.22;83.92
71107;BME280;58763;47.982;11.516;2023-02-26T04:23:29;93355.31;;;-3.28;83.69
71107;BME280;58763;47.982;11.516;2023-02-26T04:25:54;93370.22;;;-3.33;83.63
71107;BME280;58763;47.982;11.516;2023-02-26T04:28:20;93355.31;;;-3.28;83.58
71107;BME280;58763;47.982;11.516;2023-02-26T04:30:45;93370.59;;;-3.12;82.93
71107;BME280;58763;47.982;11.516;2023-02-26T04:33:12;93371.22;;;-2.98;82.26
71107;BME280;58763;47.982;11.516;2023-02-26T04:35:37;93373.78;;;-2.92;82.15
71107;BME280;58763;47.982;11.516;2023-02-26T04:38:03;93375.09;;;-3.01;81.88
71107;BME280;58763;47.982;11.516;2023-02-26T04:40:29;93380.63;;;-3.02;81.59
71107;BME280;58763;47.982;11.516;2023-02-26T04:42:55;93378.44;;;-3.23;81.36
71107;BME280;58763;47.982;11.516;2023-02-26T04:45:21;93383.81;;;-3.30;81.89
71107;BME280;58763;47.982;11.516;2023-02-26T04:47:46;93387.94;;;-3.34;81.63
71107;BME280;58763;47.982;11.516;2023-02-26T04:50:12;93383.31;;;-3.38;81.99
71107;BME280;58763;47.982;11.516;2023-02-26T04:52:38;93391.94;;;-3.50;82.75
71107;BME280;58763;47.982;11.516;2023-02-26T04:55:04;93399.22;;;-3.45;83.00
71107;BME280;58763;47.982;11.516;2023-02-26T04:57:31;93392.63;;;-3.36;82.77
71107;BME280;58763;47.982;11.516;2023-02-26T04:59:57;93396.44;;;-3.50;82.61
71107;BME280;58763;47.982;11.516;2023-02-26T05:02:22;93396.50;;;-3.57;82.85
71107;BME280;58763;47.982;11.516;2023-02-26T05:04:48;93400.94;;;-3.51;82.93
71107;BME280;58763;47.982;11.516;2023-02-26T05:07:13;93407.16;;;-3.45;81.94
71107;BME280;58763;47.982;11.516;2023-02-26T05:09:39;93409.09;;;-3.34;82.12
71107;BME280;58763;47.982;11.516;2023-02-26T05:12:05;93414.94;;;-3.14;81.94
71107;BME280;58763;47.982;11.516;2023-02-26T05:14:30;93409.50;;;-3.19;81.44
71107;BME280;58763;47.982;11.516;2023-02-26T05:16:55;93415.03;;;-3.20;81.07
71107;BME280;58763;47.982;11.516;2023-02-26T05:19:21;93426.03;;;-3.23;80.79
71107;BME280;58763;47.982;11.516;2023-02-26T05:21:46;93424.94;;;-3.16;81.25
71107;BME280;58763;47.982;11.516;2023-02-26T05:24:14;93432.72;;;-3.03;81.06
71107;BME280;58763;47.982;11.516;2023-02-26T05:26:39;93427.94;;;-3.12;80.89
71107;BME280;58763;47.982;11.516;2023-02-26T05:29:05;93433.81;;;-3.10;80.82
71107;BME280;58763;47.982;11.516;2023-02-26T05:31:31;93429.25;;;-3.03;80.49
71107;BME280;58763;47.982;11.516;2023-02-26T05:33:57;93435.94;;;-3.01;79.79
71107;BME280;58763;47.982;11.516;2023-02-26T05:36:23;93434.25;;;-2.95;80.11
71107;BME280;58763;47.982;11.516;2023-02-26T05:38:48;93434.41;;;-3.26;79.95
71107;BME280;58763;47.982;11.516;2023-02-26T05:41:14;93433.97;;;-3.23;80.29
71107;BME280;58763;47.982;11.516;2023-02-26T05:43:39;93436.00;;;-3.07;79.58
71107;BME280;58763;47.982;11.516;2023-02-26T05:46:06;93443.66;;;-2.99;78.21
71107;BME280;58763;47.982;11.516;2023-02-26T05:48:31;93444.97;;;-3.26;78.16
71107;BME280;58763;47.982;11.516;2023-02-26T05:50:57;93438.81;;;-3.20;78.33
71107;BME280;58763;47.982;11.516;2023-02-26T05:53:23;93445.56;;;-3.24;78.13
71107;BME280;58763;47.982;11.516;2023-02-26T05:55:48;93445.84;;;-3.32;77.60
71107;BME280;58763;47.982;11.516;2023-02-26T05:58:14;93452.53;;;-3.12;77.36
71107;BME280;58763;47.982;11.516;2023-02-26T06:00:40;93457.91;;;-3.00;76.99
71107;BME280;58763;47.982;11.516;2023-02-26T06:03:06;93477.16;;;-2.93;76.46
71107;BME280;58763;47.982;11.516;2023-02-26T06:05:32;93481.63;;;-2.94;76.60
71107;BME280;58763;47.982;11.516;2023-02-26T06:07:57;93476.63;;;-2.84;76.52
71107;BME280;58763;47.982;11.516;2023-02-26T06:10:24;93491.91;;;-2.67;77.02
71107;BME280;58763;47.982;11.516;2023-02-26T06:12:50;93491.09;;;-2.68;76.40
71107;BME280;58763;47.982;11.516;2023-02-26T06:15:15;93492.16;;;-2.69;76.33
71107;BME280;58763;47.982;11.516;2023-02-26T06:17:41;93495.66;;;-2.75;76.63
71107;BME280;58763;47.982;11.516;2023-02-26T06:20:08;93498.38;;;-2.63;76.48
71107;BME280;58763;47.982;11.516;2023-02-26T06:22:33;93499.91;;;-2.56;76.90
71107;BME280;58763;47.982;11.516;2023-02-26T06:24:59;93500.63;;;-2.49;76.51
71107;BME280;58763;47.982;11.516;2023-02-26T06:27:25;93501.88;;;-2.51;75.39
71107;BME280;58763;47.982;11.516;2023-02-26T06:29:50;93508.53;;;-2.60;76.30
71107;BME280;58763;47.982;11.516;2023-02-26T06:32:16;93506.50;;;-2.47;76.34
71107;BME280;58763;47.982;11.516;2023-02-26T06:34:41;93512.47;;;-2.51;76.13
71107;BME280;58763;47.982;11.516;2023-02-26T06:37:07;93507.03;;;-2.56;75.70
71107;BME280;58763;47.982;11.516;2023-02-26T06:39:32;93516.09;;;-2.82;75.49
71107;BME280;58763;47.982;11.516;2023-02-26T06:41:58;93520.94;;;-2.79;76.48
71107;BME280;58763;47.982;11.516;2023-02-26T06:44:24;93529.63;;;-2.90;76.49
71107;BME280;58763;47.982;11.516;2023-02-26T06:46:49;93527.84;;;-2.96;76.81
71107;BME280;58763;47.982;11.516;2023-02-26T06:49:15;93531.22;;;-2.89;76.34
71107;BME280;58763;47.982;11.516;2023-02-26T06:51:41;93528.00;;;-2.91;76.38
71107;BME280;58763;47.982;11.516;2023-02-26T06:54:06;93535.28;;;-2.87;76.57
71107;BME280;58763;47.982;11.516;2023-02-26T06:56:32;93540.22;;;-2.72;76.31
71107;BME280;58763;47.982;11.516;2023-02-26T06:58:57;93543.94;;;-2.80;76.09
71107;BME280;58763;47.982;11.516;2023-02-26T07:01:23;93540.47;;;-2.80;75.52
71107;BME280;58763;47.982;11.516;2023-02-26T07:03:49;93544.59;;;-2.84;75.08
71107;BME280;58763;47.982;11.516;2023-02-26T07:06:14;93544.53;;;-2.78;75.75
71107;BME280;58763;47.982;11.516;2023-02-26T07:08:40;93554.59;;;-2.68;75.19
71107;BME280;58763;47.982;11.516;2023-02-26T07:11:06;93556.97;;;-2.60;75.14
71107;BME280;58763;47.982;11.516;2023-02-26T07:13:33;93560.19;;;-2.58;75.15
71107;BME280;58763;47.982;11.516;2023-02-26T07:15:58;93552.84;;;-2.74;73.84
71107;BME280;58763;47.982;11.516;2023-02-26T07:18:24;93563.59;;;-2.69;74.36
71107;BME280;58763;47.982;11.516;2023-02-26T07:20:50;93555.41;;;-2.67;73.57
71107;BME280;58763;47.982;11.516;2023-02-26T07:23:15;93562.34;;;-2.66;74.06
71107;BME280;58763;47.982;11.516;2023-02-26T07:25:41;93569.63;;;-2.62;74.16
71107;BME280;58763;47.982;11.516;2023-02-26T07:28:07;93563.06;;;-2.78;75.20
71107;BME280;58763;47.982;11.516;2023-02-26T07:30:35;93567.81;;;-2.86;75.00
71107;BME280;58763;47.982;11.516;2023-02-26T07:33:00;93572.22;;;-2.80;74.81
71107;BME280;58763;47.982;11.516;2023-02-26T07:35:26;93585.63;;;-2.75;74.77
71107;BME280;58763;47.982;11.516;2023-02-26T07:37:52;93585.13;;;-2.65;74.76
71107;BME280;58763;47.982;11.516;2023-02-26T07:40:18;93588.88;;;-2.55;74.97
71107;BME280;58763;47.982;11.516;2023-02-26T07:42:43;93598.81;;;-2.50;74.62
71107;BME280;58763;47.982;11.516;2023-02-26T07:45:09;93589.75;;;-2.61;74.12
71107;BME280;58763;47.982;11.516;2023-02-26T07:47:35;93596.31;;;-2.45;74.77
71107;BME280;58763;47.982;11.516;2023-02-26T07:50:01;93603.13;;;-2.56;73.63
71107;BME280;58763;47.982;11.516;2023-02-26T07:52:27;93596.81;;;-2.55;74.28
71107;BME280;58763;47.982;11.516;2023-02-26T07:54:53;93604.88;;;-2.68;74.35
71107;BME280;58763;47.982;11.516;2023-02-26T07:57:19;93608.25;;;-2.61;75.15
71107;BME280;58763;47.982;11.516;2023-02-26T07:59:44;93602.25;;;-2.50;75.14
71107;BME280;58763;47.982;11.516;2023-02-26T08:02:11;93608.72;;;-2.46;74.14
71107;BME280;58763;47.982;11.516;2023-02-26T08:04:37;93618.88;;;-2.25;74.72
71107;BME280;58763;47.982;11.516;2023-02-26T08:07:03;93624.09;;;-2.18;74.97
71107;BME280;58763;47.982;11.516;2023-02-26T08:09:28;93628.13;;;-1.97;74.66
71107;BME280;58763;47.982;11.516;2023-02-26T08:11:55;93624.28;;;-1.83;74.25
71107;BME280;58763;47.982;11.516;2023-02-26T08:14:20;93626.34;;;-1.85;73.66
71107;BME280;58763;47.982;11.516;2023-02-26T08:16:46;93622.00;;;-1.98;73.40
71107;BME280;58763;47.982;11.516;2023-02-26T08:19:11;93629.59;;;-2.01;73.47
71107;BME280;58763;47.982;11.516;2023-02-26T08:21:37;93631.66;;;-2.03;73.60
71107;BME280;58763;47.982;11.516;2023-02-26T08:24:03;93633.47;;;-1.86;73.52
71107;BME280;58763;47.982;11.516;2023-02-26T08:26:28;93635.81;;;-1.78;73.07
71107;BME280;58763;47.982;11.516;2023-02-26T08:28:54;93643.59;;;-1.65;72.93
71107;BME280;58763;47.982;11.516;2023-02-26T08:31:20;93640.38;;;-1.67;72.44
71107;BME280;58763;47.982;11.516;2023-02-26T08:33:45;93650.88;;;-1.60;72.71
71107;BME280;58763;47.982;11.516;2023-02-26T08:36:11;93642.16;;;-1.49;72.05
71107;BME280;58763;47.982;11.516;2023-02-26T08:38:37;93648.06;;;-1.47;71.80
71107;BME280;58763;47.982;11.516;2023-02-26T08:41:03;93649.56;;;-1.40;71.76
71107;BME280;58763;47.982;11.516;2023-02-26T08:43:29;93645.78;;;-1.32;71.88
71107;BME280;58763;47.982;11.516;2023-02-26T08:45:56;93656.84;;;-1.35;71.40
71107;BME280;58763;47.982;11.516;2023-02-26T08:48:22;93662.81;;;-1.40;71.68
71107;BME280;58763;47.982;11.516;2023-02-26T08:50:49;93668.41;;;-1.29;71.71
71107;BME280;58763;47.982;11.516;2023-02-26T08:53:15;93655.03;;;-1.23;71.13
71107;BME280;58763;47.982;11.516;2023-02-26T08:55:41;93669.13;;;-1.11;71.34
71107;BME280;58763;47.982;11.516;2023-02-26T08:58:09;93661.56;;;-0.96;71.69
71107;BME280;58763;47.982;11.516;2023-02-26T09:00:35;93662.50;;;-0.79;71.44
71107;BME280;58763;47.982;11.516;2023-02-26T09:03:01;93676.91;;;-0.86;70.39
71107;BME280;58763;47.982;11.516;2023-02-26T09:05:26;93680.03;;;-1.01;70.00
71107;BME280;58763;47.982;11.516;2023-02-26T09:07:52;93691.63;;;-1.13;70.75
71107;BME280;58763;47.982;11.516;2023-02-26T09:10:17;93695.22;;;-1.08;71.09
71107;BME280;58763;47.982;11.516;2023-02-26T09:12:43;93693.59;;;-1.09;70.54
71107;BME280;58763;47.982;11.516;2023-02-26T09:15:10;93702.50;;;-1.03;70.56
71107;BME280;58763;47.982;11.516;2023-02-26T09:17:36;93691.66;;;-1.02;70.29
71107;BME280;58763;47.982;11.516;2023-02-26T09:20:03;93695.59;;;-0.93;70.29
71107;BME280;58763;47.982;11.516;2023-02-26T09:22:29;93690.13;;;-1.09;69.95
71107;BME280;58763;47.982;11.516;2023-02-26T09:24:55;93693.69;;;-1.15;70.83
71107;BME280;58763;47.982;11.516;2023-02-26T09:27:21;93702.00;;;-1.12;70.29
71107;BME280;58763;47.982;11.516;2023-02-26T09:29:46;93707.91;;;-1.10;71.01
71107;BME280;58763;47.982;11.516;2023-02-26T09:32:12;93711.19;;;-0.96;71.12
71107;BME280;58763;47.982;11.516;2023-02-26T09:34:38;93714.88;;;-0.86;70.64
71107;BME280;58763;47.982;11.516;2023-02-26T09:37:05;93717.56;;;-0.74;70.71
71107;BME280;58763;47.982;11.516;2023-02-26T09:39:31;93721.28;;;-1.05;69.50
71107;BME280;58763;47.982;11.516;2023-02-26T09:44:39;93720.19;;;-0.86;70.94
71107;BME280;58763;47.982;11.516;2023-02-26T09:47:21;93718.34;;;-0.85;71.33
71107;BME280;58763;47.982;11.516;2023-02-26T09:49:53;93717.56;;;-0.74;71.94
71107;BME280;58763;47.982;11.516;2023-02-26T09:52:28;93722.19;;;-0.70;71.25
71107;BME280;58763;47.982;11.516;2023-02-26T09:55:21;93730.25;;;-0.76;70.82
71107;BME280;58763;47.982;11.516;2023-02-26T09:57:51;93720.22;;;-0.74;70.65
71107;BME280;58763;47.982;11.516;2023-02-26T10:03:20;93729.84;;;-0.61;70.57
71107;BME280;58763;47.982;11.516;2023-02-26T10:06:15;93732.38;;;-0.55;71.25
71107;BME280;58763;47.982;11.516;2023-02-26T10:08:56;93731.78;;;-0.68;69.73
71107;BME280;58763;47.982;11.516;2023-02-26T10:11:36;93739.69;;;-0.92;70.16
71107;BME280;58763;47.982;11.516;2023-02-26T10:16:37;93740.91;;;-1.06;72.56
71107;BME280;58763;47.982;11.516;2023-02-26T10:19:07;93731.06;;;-1.17;72.61
71107;BME280;58763;47.982;11.516;2023-02-26T10:24:13;93732.19;;;-1.24;73.66
71107;BME280;58763;47.982;11.516;2023-02-26T10:26:54;93740.63;;;-1.16;72.61
71107;BME280;58763;47.982;11.516;2023-02-26T10:29:27;93733.75;;;-1.35;73.07
71107;BME280;58763;47.982;11.516;2023-02-26T10:34:54;93733.16;;;-1.07;73.41
71107;BME280;58763;47.982;11.516;2023-02-26T10:40:22;93728.88;;;-1.20;74.30
71107;BME280;58763;47.982;11.516;2023-02-26T10:42:55;93722.66;;;-1.44;73.35
71107;BME280;58763;47.982;11.516;2023-02-26T10:51:22;93707.66;;;-1.86;77.94
71107;BME280;58763;47.982;11.516;2023-02-26T10:53:53;93706.91;;;-1.57;77.23
71107;BME280;58763;47.982;11.516;2023-02-26T10:56:27;93709.78;;;-1.58;75.55
71107;BME280;58763;47.982;11.516;2023-02-26T10:58:53;93707.34;;;-1.60;76.20
71107;BME280;58763;47.982;11.516;2023-02-26T11:01:23;93710.28;;;-1.50;76.20
71107;BME280;58763;47.982;11.516;2023-02-26T11:04:02;93701.25;;;-1.60;75.79
71107;BME280;58763;47.982;11.516;2023-02-26T11:06:33;93700.22;;;-1.59;75.86
71107;BME280;58763;47.982;11.516;2023-02-26T11:09:01;93703.34;;;-1.51;76.09
71107;BME280;58763;47.982;11.516;2023-02-26T11:11:50;93692.31;;;-1.48;75.43
71107;BME280;58763;47.982;11.516;2023-02-26T11:14:16;93700.38;;;-1.54;75.83
71107;BME280;58763;47.982;11.516;2023-02-26T11:16:47;93703.56;;;-1.34;75.60
71107;BME280;58763;47.982;11.516;2023-02-26T11:19:15;93725.16;;;-1.19;75.23
71107;BME280;58763;47.982;11.516;2023-02-26T11:21:44;93729.25;;;-1.05;75.43
71107;BME280;58763;47.982;11.516;2023-02-26T11:24:16;93730.00;;;-0.86;75.25
71107;BME280;58763;47.982;11.516;2023-02-26T11:26:46;93744.06;;;-0.86;74.87
71107;BME280;58763;47.982;11.516;2023-02-26T11:29:15;93743.06;;;-0.85;73.84
71107;BME280;58763;47.982;11.516;2023-02-26T11:31:41;93747.06;;;-0.94;74.43
71107;BME280;58763;47.982;11.516;2023-02-26T11:34:10;93751.03;;;-0.85;74.23
71107;BME280;58763;47.982;11.516;2023-02-26T11:36:39;93759.31;;;-0.81;74.02
71107;BME280;58763;47.982;11.516;2023-02-26T11:39:13;93756.94;;;-0.71;73.71
71107;BME280;58763;47.982;11.516;2023-02-26T11:41:40;93760.13;;;-0.81;74.10
71107;BME280;58763;47.982;11.516;2023-02-26T11:46:56;93758.66;;;-0.65;73.79
71107;BME280;58763;47.982;11.516;2023-02-26T11:49:25;93752.09;;;-0.62;73.52
71107;BME280;58763;47.982;11.516;2023-02-26T11:54:38;93751.56;;;-0.41;73.07
71107;BME280;58763;47.982;11.516;2023-02-26T11:57:06;93757.13;;;-0.31;72.22
71107;BME280;58763;47.982;11.516;2023-02-26T11:59:38;93758.06;;;-0.26;71.92
71107;BME280;58763;47.982;11.516;2023-02-26T12:02:12;93754.22;;;-0.41;69.87
71107;BME280;58763;47.982;11.516;2023-02-26T12:04:42;93751.44;;;-0.46;71.67
71107;BME280;58763;47.982;11.516;2023-02-26T12:07:14;93743.84;;;-0.43;71.32
71107;BME280;58763;47.982;11.516;2023-02-26T12:09:41;93739.81;;;-0.22;73.35
71107;BME280;58763;47.982;11.516;2023-02-26T12:23:27;93755.50;;;0.03;71.57
71107;BME280;58763;47.982;11.516;2023-02-26T12:26:08;93761.16;;;-0.40;72.36
71107;BME280;58763;47.982;11.516;2023-02-26T12:44:15;93747.31;;;-0.84;77.04
71107;BME280;58763;47.982;11.516;2023-02-26T12:46:53;93740.81;;;-0.99;77.04
71107;BME280;58763;47.982;11.516;2023-02-26T12:49:32;93729.44;;;-0.77;77.11
71107;BME280;58763;47.982;11.516;2023-02-26T13:00:42;93734.84;;;-0.07;75.19
71107;BME280;58763;47.982;11.516;2023-02-26T13:06:02;93738.66;;;-0.15;74.89
71107;BME280;58763;47.982;11.516;2023-02-26T13:08:38;93739.94;;;-0.17;73.62
71107;BME280;58763;47.982;11.516;2023-02-26T13:16:48;93759.34;;;-0.28;72.15
71107;BME280;58763;47.982;11.516;2023-02-26T13:24:47;93766.13;;;-0.09;72.65
71107;BME280;58763;47.982;11.516;2023-02-26T13:27:13;93751.50;;;0.00;71.03
71107;BME280;58763;47.982;11.516;2023-02-26T13:29:50;93749.50;;;0.07;70.01
71107;BME280;58763;47.982;11.516;2023-02-26T13:32:25;93753.19;;;0.18;69.01
71107;BME280;58763;47.982;11.516;2023-02-26T13:34:59;93745.81;;;0.20;68.69
71107;BME280;58763;47.982;11.516;2023-02-26T13:37:37;93748.13;;;0.16;68.00
71107;BME280;58763;47.982;11.516;2023-02-26T13:51:36;93742.97;;;0.49;68.44
71107;BME280;58763;47.982;11.516;2023-02-26T13:56:42;93753.56;;;0.73;68.19
71107;BME280;58763;47.982;11.516;2023-02-26T14:01:57;93754.78;;;0.93;67.57
71107;BME280;58763;47.982;11.516;2023-02-26T14:04:30;93744.53;;;0.74;67.93
71107;BME280;58763;47.982;11.516;2023-02-26T14:07:14;93736.19;;;0.82;67.76
71107;BME280;58763;47.982;11.516;2023-02-26T14:12:36;93742.81;;;0.96;68.44
71107;BME280;58763;47.982;11.516;2023-02-26T14:17:39;93756.22;;;0.73;67.53
71107;BME280;58763;47.982;11.516;2023-02-26T14:20:24;93754.19;;;0.40;68.55
71107;BME280;58763;47.982;11.516;2023-02-26T14:25:33;93758.78;;;0.05;73.72
71107;BME280;58763;47.982;11.516;2023-02-26T14:28:18;93761.88;;;-0.33;74.49
71107;BME280;58763;47.982;11.516;2023-02-26T14:30:50;93779.13;;;-0.65;75.13
71107;BME280;58763;47.982;11.516;2023-02-26T14:33:18;93775.94;;;-0.86;75.94
71107;BME280;58763;47.982;11.516;2023-02-26T14:35:47;93783.44;;;-0.83;76.52
71107;BME280;58763;47.982;11.516;2023-02-26T14:38:23;93793.63;;;-0.80;74.98
71107;BME280;58763;47.982;11.516;2023-02-26T14:41:00;93793.63;;;-0.80;75.04
71107;BME280;58763;47.982;11.516;2023-02-26T14:43:35;93783.00;;;-0.80;74.06
71107;BME280;58763;47.982;11.516;2023-02-26T14:46:04;93795.22;;;-0.79;74.69
71107;BME280;58763;47.982;11.516;2023-02-26T14:48:31;93809.34;;;-0.66;74.20
71107;BME280;58763;47.982;11.516;2023-02-26T14:53:45;93807.44;;;-0.48;73.71
71107;BME280;58763;47.982;11.516;2023-02-26T15:01:45;93815.41;;;-0.48;74.19
71107;BME280;58763;47.982;11.516;2023-02-26T15:04:26;93824.50;;;-0.55;74.88
71107;BME280;58763;47.982;11.516;2023-02-26T15:11:02;93832.81;;;-1.11;77.41
71107;BME280;58763;47.982;11.516;2023-02-26T15:13:29;93827.00;;;-1.56;79.27
71107;BME280;58763;47.982;11.516;2023-02-26T15:18:45;93834.44;;;-2.08;81.27
71107;BME280;58763;47.982;11.516;2023-02-26T15:21:27;93842.16;;;-2.31;82.81
71107;BME280;58763;47.982;11.516;2023-02-26T15:23:56;93840.09;;;-2.53;83.89
71107;BME280;58763;47.982;11.516;2023-02-26T15:26:25;93847.66;;;-2.57;84.28
71107;BME280;58763;47.982;11.516;2023-02-26T15:28:52;93842.78;;;-2.60;84.44